Time;durP1;ratioP1;P1;durP2;ratioP2;P2;SDS_P1;SDS_P2;PMS_P1;PMS_P2;Temp;Humidity;BMP_temperature;BMP_pressure;BME280_temperature;BME280_humidity;BME280_pressure;Samples;Min_cycle;Max_cycle;Signal;HPM_P1;HPM_P2
2021/04/21 00:01:20;;;;;;;3.4;2.1;;;;;;;5.25;76.2168;936.9112;;;;
2021/04/21 00:03:45;;;;;;;2.1;1.4;;;;;;;5.29;76.17871;936.8616;;;;
2021/04/21 00:06:10;;;;;;;2.5;1.7;;;;;;;5.37;75.78711;936.9355;;;;
2021/04/21 00:08:35;;;;;;;2.3;1.7;;;;;;;5.41;75.49023;936.9084;;;;
2021/04/21 00:11:00;;;;;;;5.4;2.1;;;;;;;5.35;75.53516;936.875;;;;
2021/04/21 00:13:29;;;;;;;1.3;1.1;;;;;;;5.17;76.14844;936.7659;;;;
2021/04/21 00:16:06;;;;;;;1.3;1.2;;;;;;;5;76.87305;936.7855;;;;
2021/04/21 00:18:34;;;;;;;1.5;1.2;;;;;;;4.93;77.18457;936.804;;;;
2021/04/21 00:20:59;;;;;;;1.8;1.4;;;;;;;4.93;77.19629;936.8261;;;;
2021/04/21 00:23:24;;;;;;;3.8;1.7;;;;;;;5.02;76.88574;936.7553;;;;
2021/04/21 00:25:49;;;;;;;1.8;1.2;;;;;;;5.05;76.7002;936.7034;;;;
2021/04/21 00:28:17;;;;;;;2.1;1.1;;;;;;;5;76.80469;936.7697;;;;
2021/04/21 00:30:43;;;;;;;2.9;1.4;;;;;;;4.95;77.04297;936.7618;;;;
2021/04/21 00:33:07;;;;;;;2.5;1.2;;;;;;;4.89;77.14648;936.7043;;;;
2021/04/21 00:35:34;;;;;;;3;1.3;;;;;;;4.84;77.10254;936.7045;;;;
2021/04/21 00:37:59;;;;;;;1.7;1.2;;;;;;;4.72;77.53223;936.6795;;;;
2021/04/21 00:40:25;;;;;;;1.2;0.8;;;;;;;4.62;78.0752;936.6568;;;;
2021/04/21 00:42:51;;;;;;;3.7;1.5;;;;;;;4.58;78.2373;936.6309;;;;
2021/04/21 00:45:16;;;;;;;1.9;1.4;;;;;;;4.54;78.15039;936.6091;;;;
2021/04/21 00:47:41;;;;;;;2.8;1.3;;;;;;;4.46;78.35156;936.5801;;;;
2021/04/21 00:50:06;;;;;;;3.4;1.5;;;;;;;4.46;78.33789;936.5862;;;;
2021/04/21 00:52:31;;;;;;;1.6;1.5;;;;;;;4.23;79.5791;936.5226;;;;
2021/04/21 00:54:56;;;;;;;2.1;1.4;;;;;;;4.28;79.99316;936.5524;;;;
2021/04/21 00:57:23;;;;;;;1.8;1.5;;;;;;;4.29;80.0752;936.5858;;;;
2021/04/21 00:59:47;;;;;;;2.7;1.7;;;;;;;4.37;79.97559;936.6465;;;;
2021/04/21 01:02:12;;;;;;;4.2;1.6;;;;;;;4.5;79.20215;936.6082;;;;
2021/04/21 01:04:37;;;;;;;2.5;1.7;;;;;;;4.54;78.65918;936.5872;;;;
2021/04/21 01:07:04;;;;;;;1.6;1.4;;;;;;;4.54;78.20801;936.5999;;;;
2021/04/21 01:09:29;;;;;;;2.4;1.5;;;;;;;4.57;78.20215;936.5809;;;;
2021/04/21 01:12:03;;;;;;;2.4;1.6;;;;;;;4.66;77.73242;936.5695;;;;
2021/04/21 01:14:28;;;;;;;2.4;1.4;;;;;;;4.76;77.15527;936.5331;;;;
2021/04/21 01:17:04;;;;;;;3.7;1.2;;;;;;;4.82;76.37695;936.5545;;;;
2021/04/21 01:19:29;;;;;;;2.3;1.2;;;;;;;4.86;76.14844;936.5347;;;;
2021/04/21 01:21:54;;;;;;;2;1.7;;;;;;;4.93;75.83203;936.5419;;;;
2021/04/21 01:24:20;;;;;;;2.6;1.4;;;;;;;4.93;75.77637;936.5648;;;;
2021/04/21 01:26:45;;;;;;;1.8;1.3;;;;;;;4.85;75.71777;936.5943;;;;
2021/04/21 01:29:10;;;;;;;3;1.7;;;;;;;4.59;76.91211;936.5139;;;;
2021/04/21 01:31:35;;;;;;;1.3;1.1;;;;;;;4.54;77.71094;936.5303;;;;
2021/04/21 01:34:04;;;;;;;2.9;1.2;;;;;;;4.5;77.76074;936.5144;;;;
2021/04/21 01:36:29;;;;;;;1.7;1.2;;;;;;;4.53;77.55176;936.5103;;;;
2021/04/21 01:38:58;;;;;;;1.3;1.2;;;;;;;4.41;78.00391;936.532;;;;
2021/04/21 01:41:23;;;;;;;1.2;1.1;;;;;;;4.23;78.70215;936.5872;;;;
2021/04/21 01:43:48;;;;;;;1.2;1.1;;;;;;;4.16;79.03906;936.5226;;;;
2021/04/21 01:46:14;;;;;;;2.1;1.1;;;;;;;4.13;79.12207;936.5264;;;;
2021/04/21 01:48:42;;;;;;;1.9;1.4;;;;;;;4.04;79.50977;936.5126;;;;
2021/04/21 01:51:07;;;;;;;1.8;1.4;;;;;;;3.94;79.76172;936.5392;;;;
2021/04/21 01:53:32;;;;;;;1.7;1.2;;;;;;;3.88;79.77246;936.5032;;;;
2021/04/21 01:55:57;;;;;;;2.5;1.6;;;;;;;3.75;80.20801;936.4902;;;;
2021/04/21 01:58:23;;;;;;;2.2;1.4;;;;;;;3.65;80.70703;936.5179;;;;
2021/04/21 02:00:48;;;;;;;1.4;1.1;;;;;;;3.58;80.96289;936.5428;;;;
2021/04/21 02:03:13;;;;;;;1.1;1;;;;;;;3.45;81.87109;936.5654;;;;
2021/04/21 02:05:38;;;;;;;1.8;1.2;;;;;;;3.55;81.85547;936.5267;;;;
2021/04/21 02:08:03;;;;;;;2.6;1.4;;;;;;;3.64;81.43457;936.5229;;;;
2021/04/21 02:10:32;;;;;;;1.5;1.1;;;;;;;3.69;81.33203;936.5151;;;;
2021/04/21 02:13:00;;;;;;;1.7;1.4;;;;;;;3.7;81.32422;936.4981;;;;
2021/04/21 02:15:41;;;;;;;2.1;1.5;;;;;;;3.78;81.11328;936.4628;;;;
2021/04/21 02:18:10;;;;;;;2;1.4;;;;;;;3.88;80.9209;936.538;;;;
2021/04/21 02:20:42;;;;;;;1.9;1.6;;;;;;;3.97;80.19531;936.5449;;;;
2021/04/21 02:23:08;;;;;;;2.6;1.3;;;;;;;3.98;79.53223;936.56;;;;
2021/04/21 02:25:36;;;;;;;1.2;1.1;;;;;;;3.95;79.33594;936.5369;;;;
2021/04/21 02:28:01;;;;;;;2.5;1.5;;;;;;;3.98;79.03711;936.4528;;;;
2021/04/21 02:30:27;;;;;;;1.6;1.4;;;;;;;3.92;78.9375;936.4936;;;;
2021/04/21 02:32:55;;;;;;;1.7;1.3;;;;;;;3.92;79.09473;936.4984;;;;
2021/04/21 02:35:20;;;;;;;3.8;1.8;;;;;;;3.86;79.21777;936.5397;;;;
2021/04/21 02:37:45;;;;;;;1.9;1.7;;;;;;;3.68;80.17285;936.4895;;;;
2021/04/21 02:40:10;;;;;;;2.3;1.2;;;;;;;3.65;80.48242;936.5382;;;;
2021/04/21 02:42:36;;;;;;;1.7;1.2;;;;;;;3.7;79.99707;936.4791;;;;
2021/04/21 02:45:01;;;;;;;2.2;1.4;;;;;;;3.62;80.07324;936.3997;;;;
2021/04/21 02:47:26;;;;;;;13.2;1.1;;;;;;;3.65;80.15723;936.4839;;;;
2021/04/21 02:49:51;;;;;;;4.4;1.8;;;;;;;3.53;80.77344;936.4774;;;;
2021/04/21 02:52:18;;;;;;;2.9;1.3;;;;;;;3.53;80.70605;936.4358;;;;
2021/04/21 02:54:45;;;;;;;2.1;1.5;;;;;;;3.44;81.33105;936.4108;;;;
2021/04/21 02:57:10;;;;;;;2;1.4;;;;;;;3.55;81.14746;936.4213;;;;
2021/04/21 02:59:35;;;;;;;2.5;1.7;;;;;;;3.62;80.48828;936.4336;;;;
2021/04/21 03:02:00;;;;;;;2.4;1.2;;;;;;;3.64;80.49023;936.3805;;;;
2021/04/21 03:04:25;;;;;;;4.6;1.7;;;;;;;3.53;80.89648;936.4208;;;;
2021/04/21 03:06:50;;;;;;;5.9;2;;;;;;;3.43;81.36035;936.4228;;;;
2021/04/21 03:09:15;;;;;;;3;1.8;;;;;;;3.42;81.78711;936.37;;;;
2021/04/21 03:11:40;;;;;;;4.8;2.3;;;;;;;3.44;81.51074;936.407;;;;
2021/04/21 03:14:06;;;;;;;2.4;1.8;;;;;;;3.45;80.93945;936.4167;;;;
2021/04/21 03:16:40;;;;;;;2.6;1.7;;;;;;;3.31;81.28027;936.3848;;;;
2021/04/21 03:19:13;;;;;;;1.7;1.2;;;;;;;3.18;81.61719;936.4126;;;;
2021/04/21 03:21:43;;;;;;;1.7;1.5;;;;;;;3.11;81.88379;936.4031;;;;
2021/04/21 03:24:18;;;;;;;1.4;1.3;;;;;;;3.09;82.19434;936.2852;;;;
2021/04/21 03:26:43;;;;;;;1.6;1.5;;;;;;;3.01;82.63672;936.2831;;;;
2021/04/21 03:29:08;;;;;;;2.9;1.6;;;;;;;3.02;82.41602;936.2623;;;;
2021/04/21 03:31:34;;;;;;;3.3;1.3;;;;;;;2.96;82.60547;936.3041;;;;
2021/04/21 03:33:59;;;;;;;3;1.2;;;;;;;2.88;83.31934;936.2729;;;;
2021/04/21 03:36:26;;;;;;;3.1;1.8;;;;;;;2.93;83.44141;936.2881;;;;
2021/04/21 03:38:51;;;;;;;1.9;1.5;;;;;;;2.89;83.52441;936.2631;;;;
2021/04/21 03:41:18;;;;;;;2.5;1.8;;;;;;;2.95;83.10938;936.2675;;;;
2021/04/21 03:43:44;;;;;;;4.3;3;;;;;;;2.95;82.82813;936.2614;;;;
2021/04/21 03:46:09;;;;;;;3.1;2.5;;;;;;;3.07;82.33496;936.2198;;;;
2021/04/21 03:48:34;;;;;;;2.8;2.2;;;;;;;3.11;81.80566;936.2717;;;;
2021/04/21 03:51:01;;;;;;;6.6;2.2;;;;;;;3.04;81.92578;936.23;;;;
2021/04/21 03:53:26;;;;;;;2.1;1.3;;;;;;;3.06;81.94043;936.2;;;;
2021/04/21 03:55:53;;;;;;;3;1.9;;;;;;;3.02;81.96777;936.1233;;;;
2021/04/21 03:58:18;;;;;;;2.1;1.4;;;;;;;2.98;82.05957;936.1867;;;;
2021/04/21 04:02:27;;;;;;;2.1;1.4;;;;;;;3.02;82.61816;936.1294;;;;
2021/04/21 04:04:52;;;;;;;1.4;1.3;;;;;;;3.01;82.43652;936.1418;;;;
2021/04/21 04:07:18;;;;;;;2.9;1.6;;;;;;;2.88;82.75977;936.1702;;;;
2021/04/21 04:09:43;;;;;;;2.1;1.6;;;;;;;2.63;83.79785;936.1367;;;;
2021/04/21 04:12:08;;;;;;;3.1;1.8;;;;;;;2.58;84.29395;936.1057;;;;
2021/04/21 04:14:33;;;;;;;2.8;1.5;;;;;;;2.53;84.62988;936.1738;;;;
2021/04/21 04:17:05;;;;;;;2.4;1.8;;;;;;;2.49;84.61035;936.104;;;;
2021/04/21 04:19:32;;;;;;;3.5;2.3;;;;;;;2.41;85.05469;936.1302;;;;
2021/04/21 04:22:01;;;;;;;1.4;1.1;;;;;;;2.35;85.33301;936.1284;;;;
2021/04/21 04:24:29;;;;;;;1.6;1.1;;;;;;;2.26;86.03027;936.133;;;;
2021/04/21 04:26:55;;;;;;;3.7;2.2;;;;;;;2.27;86.3584;936.1624;;;;
2021/04/21 04:29:27;;;;;;;3.1;2.2;;;;;;;2.39;86.0127;936.1573;;;;
2021/04/21 04:31:55;;;;;;;4.2;1.3;;;;;;;2.53;85.48145;936.2177;;;;
2021/04/21 04:34:20;;;;;;;1.2;1.1;;;;;;;2.62;85.02734;936.0992;;;;
2021/04/21 04:36:52;;;;;;;1.6;1.5;;;;;;;2.61;84.62402;936.2411;;;;
2021/04/21 04:39:24;;;;;;;4.2;3;;;;;;;2.63;84.53613;936.153;;;;
2021/04/21 04:41:57;;;;;;;7.3;3.4;;;;;;;2.58;84.60547;936.1951;;;;
2021/04/21 04:44:27;;;;;;;5.2;3.1;;;;;;;2.49;84.91211;936.2006;;;;
2021/04/21 04:46:57;;;;;;;9.3;5.1;;;;;;;2.49;85.18164;936.225;;;;
2021/04/21 04:49:23;;;;;;;3.8;2.8;;;;;;;2.46;85.44531;936.1301;;;;
2021/04/21 04:51:48;;;;;;;4.9;3;;;;;;;2.62;84.98438;936.1842;;;;
2021/04/21 04:54:13;;;;;;;8.4;4.9;;;;;;;2.65;84.37305;936.1987;;;;
2021/04/21 04:56:40;;;;;;;9.4;3.1;;;;;;;2.66;84.41992;936.2658;;;;
2021/04/21 04:59:05;;;;;;;5;3.1;;;;;;;2.74;84.26758;936.2586;;;;
2021/04/21 05:01:32;;;;;;;3.7;2.9;;;;;;;2.86;83.65234;936.1998;;;;
2021/04/21 05:04:00;;;;;;;5.5;3.8;;;;;;;2.96;82.80762;936.2961;;;;
2021/04/21 05:06:25;;;;;;;6.2;2.7;;;;;;;2.92;82.53125;936.3223;;;;
2021/04/21 05:08:50;;;;;;;5.2;2.5;;;;;;;2.93;82.62305;936.296;;;;
2021/04/21 05:11:15;;;;;;;3.8;2.5;;;;;;;2.88;82.76953;936.3745;;;;
2021/04/21 05:13:40;;;;;;;14.9;6.6;;;;;;;2.75;83.32813;936.383;;;;
2021/04/21 05:16:15;;;;;;;10.3;4.7;;;;;;;2.77;84.30664;936.4087;;;;
2021/04/21 05:18:49;;;;;;;7.6;4.4;;;;;;;2.9;83.32422;936.4405;;;;
2021/04/21 05:21:16;;;;;;;8.3;4.4;;;;;;;2.95;82.33496;936.395;;;;
2021/04/21 05:23:43;;;;;;;6.3;4.2;;;;;;;3.02;82.61816;936.4323;;;;
2021/04/21 05:26:09;;;;;;;4.9;2.4;;;;;;;3.15;85.99805;936.4799;;;;
2021/04/21 05:28:42;;;;;;;2.5;2;;;;;;;3.14;84.48145;936.4677;;;;
2021/04/21 05:31:07;;;;;;;2.8;1.9;;;;;;;3.24;83.70605;936.4645;;;;
2021/04/21 05:33:34;;;;;;;2.6;2.1;;;;;;;4.48;80.94238;936.5286;;;;
2021/04/21 05:36:05;;;;;;;3.2;1.4;;;;;;;6.59;72.25879;936.3984;;;;
2021/04/21 05:38:30;;;;;;;3.5;1.3;;;;;;;8.38;64.66406;936.4475;;;;
2021/04/21 05:41:01;;;;;;;1.4;1.1;;;;;;;9.31;59.91016;936.3925;;;;
2021/04/21 05:43:27;;;;;;;1.7;1.5;;;;;;;9.64;58.29102;936.4633;;;;
2021/04/21 05:45:56;;;;;;;3.8;2.1;;;;;;;9.72;58.50781;936.4109;;;;
2021/04/21 05:48:37;;;;;;;2;1.8;;;;;;;9.22;60.14648;936.463;;;;
2021/04/21 05:52:26;;;;;;;3.5;1.7;;;;;;;10.81;55.51367;936.3628;;;;
2021/04/21 05:54:51;;;;;;;2.2;1.6;;;;;;;12;51.07129;936.3792;;;;
2021/04/21 05:57:16;;;;;;;2.3;1.4;;;;;;;12.14;49.79395;936.2687;;;;
2021/04/21 06:00:34;;;;;;;2.3;0.9;;;;;;;11.06;51.69336;936.3786;;;;
2021/04/21 06:02:59;;;;;;;6;1.2;;;;;;;11.21;52.2373;936.4087;;;;
2021/04/21 06:05:24;;;;;;;1.3;0.7;;;;;;;12.08;49.99219;936.3597;;;;
2021/04/21 06:07:53;;;;;;;1.8;0.8;;;;;;;12.21;49.06836;936.3629;;;;
2021/04/21 06:10:18;;;;;;;2.6;0.9;;;;;;;12.02;49.28613;936.35;;;;
2021/04/21 06:12:45;;;;;;;0.8;0.6;;;;;;;12.88;47.51367;936.3823;;;;
2021/04/21 06:15:28;;;;;;;0.4;0.4;;;;;;;13.58;44.86426;936.3536;;;;
2021/04/21 06:18:00;;;;;;;1.3;0.5;;;;;;;13.95;44.71875;936.2695;;;;
2021/04/21 06:20:29;;;;;;;1.1;0.7;;;;;;;14.54;42.99316;936.3301;;;;
2021/04/21 06:22:54;;;;;;;0.7;0.6;;;;;;;15.5;41.15918;936.2803;;;;
2021/04/21 06:25:26;;;;;;;3.7;1.1;;;;;;;14.71;41.14258;936.3169;;;;
2021/04/21 06:27:56;;;;;;;1.1;0.9;;;;;;;14.64;42.11523;936.2654;;;;
2021/04/21 06:30:29;;;;;;;9;2.2;;;;;;;15.69;40.48438;936.2672;;;;
2021/04/21 06:33:01;;;;;;;2.1;0.8;;;;;;;15.22;41.09863;936.2346;;;;
2021/04/21 06:35:26;;;;;;;1.3;0.8;;;;;;;16.01;38.4668;936.2816;;;;
2021/04/21 06:37:55;;;;;;;1.2;0.7;;;;;;;15.29;40.25;936.2922;;;;
2021/04/21 06:40:27;;;;;;;0.9;0.7;;;;;;;14.77;40.89453;936.2866;;;;
2021/04/21 06:42:56;;;;;;;0.5;0.5;;;;;;;15.62;39.39258;936.2681;;;;
2021/04/21 06:45:21;;;;;;;4.4;1;;;;;;;14.76;40.7207;936.2202;;;;
2021/04/21 06:47:52;;;;;;;1.4;0.8;;;;;;;15.53;39.69531;936.2101;;;;
2021/04/21 06:50:17;;;;;;;1.3;0.5;;;;;;;17.16;37.60645;936.1788;;;;
2021/04/21 06:52:42;;;;;;;0.9;0.6;;;;;;;17.37;35.31543;936.2081;;;;
2021/04/21 06:55:08;;;;;;;1.2;0.6;;;;;;;17.09;35.44434;936.1761;;;;
2021/04/21 06:57:33;;;;;;;0.9;0.6;;;;;;;16.39;35.98926;936.2014;;;;
2021/04/21 06:59:58;;;;;;;0.5;0.3;;;;;;;16.05;38.37793;936.176;;;;
2021/04/21 07:02:23;;;;;;;1.3;0.4;;;;;;;16.28;37.33398;936.1872;;;;
2021/04/21 07:04:49;;;;;;;3.5;0.7;;;;;;;16.71;36.65332;936.1873;;;;
2021/04/21 07:07:15;;;;;;;0.4;0.4;;;;;;;18.58;35.33203;936.1628;;;;
2021/04/21 07:09:40;;;;;;;2.4;0.6;;;;;;;19.66;31.55859;936.1559;;;;
2021/04/21 07:12:06;;;;;;;0.6;0.5;;;;;;;21.29;32.88086;936.1566;;;;
2021/04/21 07:14:31;;;;;;;1.1;0.7;;;;;;;22.61;28.94141;936.1387;;;;
2021/04/21 07:16:59;;;;;;;1;0.6;;;;;;;23.65;25.25684;936.1597;;;;
2021/04/21 07:19:27;;;;;;;1.6;0.6;;;;;;;23.31;26.8125;936.1696;;;;
2021/04/21 07:21:52;;;;;;;0.8;0.4;;;;;;;22.81;27.53418;936.1494;;;;
2021/04/21 07:24:19;;;;;;;0.3;0.3;;;;;;;23.24;28.05371;936.1166;;;;
2021/04/21 07:26:45;;;;;;;0.4;0.3;;;;;;;23.46;24.93945;936.0617;;;;
2021/04/21 07:29:10;;;;;;;0.7;0.2;;;;;;;23.61;26.21875;936.0789;;;;
2021/04/21 07:31:38;;;;;;;0.6;0.4;;;;;;;23.3;26.24707;936.0561;;;;
2021/04/21 07:34:06;;;;;;;0.4;0.3;;;;;;;24.04;25.77344;935.9698;;;;
2021/04/21 07:36:31;;;;;;;0.6;0.4;;;;;;;24.7;23.32324;935.9786;;;;
2021/04/21 07:38:57;;;;;;;0.3;0.2;;;;;;;24.78;23.91699;936.0129;;;;
2021/04/21 07:41:23;;;;;;;0.8;0.5;;;;;;;24.77;23.48047;936.0249;;;;
2021/04/21 07:43:50;;;;;;;0.3;0.2;;;;;;;23.97;24.35645;935.9858;;;;
2021/04/21 07:46:17;;;;;;;1.2;0.3;;;;;;;23.26;26.32715;935.9695;;;;
2021/04/21 07:48:42;;;;;;;1;0.4;;;;;;;23.62;23.18457;935.9598;;;;
2021/04/21 07:51:08;;;;;;;0.3;0.3;;;;;;;21.62;25.28223;935.8897;;;;
2021/04/21 07:53:33;;;;;;;0.7;0.4;;;;;;;23.11;25.71973;935.9314;;;;
2021/04/21 07:55:58;;;;;;;0.3;0.3;;;;;;;24.17;24.12012;935.9216;;;;
2021/04/21 07:58:24;;;;;;;0.4;0.4;;;;;;;23.84;24.1377;935.8884;;;;
2021/04/21 08:00:50;;;;;;;0.6;0.5;;;;;;;23.42;24.97363;935.8795;;;;
2021/04/21 08:03:15;;;;;;;0.4;0.3;;;;;;;23.59;25.39453;935.8636;;;;
2021/04/21 08:05:41;;;;;;;0.4;0.3;;;;;;;24.19;25.42871;935.85;;;;
2021/04/21 08:08:06;;;;;;;0.2;0.2;;;;;;;25.58;21.91602;935.7921;;;;
2021/04/21 08:10:34;;;;;;;0.6;0.3;;;;;;;27.36;20.92383;935.8259;;;;
2021/04/21 08:12:57;;;;;;;2.8;0.4;;;;;;;28.25;21.28711;935.8114;;;;
2021/04/21 08:15:32;;;;;;;0.2;0.2;;;;;;;26.43;21.5791;935.7528;;;;
2021/04/21 08:17:57;;;;;;;1.5;0.6;;;;;;;24.93;23.32324;935.7733;;;;
2021/04/21 08:20:22;;;;;;;0.3;0.3;;;;;;;24.2;23.23828;935.7023;;;;
2021/04/21 08:22:47;;;;;;;0.5;0.3;;;;;;;25.28;23.01172;935.7568;;;;
2021/04/21 08:25:13;;;;;;;1.4;0.3;;;;;;;27.27;20.2207;935.7491;;;;
2021/04/21 08:27:38;;;;;;;0.2;0.2;;;;;;;28.75;17.85938;935.7561;;;;
2021/04/21 08:30:03;;;;;;;0.3;0.3;;;;;;;29.33;17.52441;935.7332;;;;
2021/04/21 08:32:28;;;;;;;0.2;0.2;;;;;;;29.9;16.90332;935.7244;;;;
2021/04/21 08:34:53;;;;;;;0.2;0.2;;;;;;;28.09;18.34375;935.7352;;;;
2021/04/21 08:37:18;;;;;;;0.5;0.4;;;;;;;28.62;17.85449;935.6769;;;;
2021/04/21 08:39:43;;;;;;;0.4;0.4;;;;;;;28.83;17.7793;935.7291;;;;
2021/04/21 08:42:08;;;;;;;0.5;0.4;;;;;;;28.14;17.51367;935.6223;;;;
2021/04/21 08:44:40;;;;;;;0.3;0.3;;;;;;;28.69;18.04688;935.6778;;;;
2021/04/21 08:46:59;;;;;;;0.9;0.5;;;;;;;29.46;17.17285;935.6208;;;;
2021/04/21 08:49:26;;;;;;;0.2;0.2;;;;;;;30.78;16.625;935.642;;;;
2021/04/21 08:51:51;;;;;;;0.3;0.2;;;;;;;31.81;16.21973;935.5684;;;;
2021/04/21 08:54:16;;;;;;;0.2;0.1;;;;;;;32.44;14.77832;935.601;;;;
2021/04/21 08:56:42;;;;;;;1.5;0.4;;;;;;;30.92;16.97656;935.575;;;;
2021/04/21 08:59:08;;;;;;;0.7;0.4;;;;;;;32.27;15.76855;935.5467;;;;
2021/04/21 09:01:32;;;;;;;0.4;0.3;;;;;;;32.7;15.55469;935.5211;;;;
2021/04/21 09:03:57;;;;;;;0.2;0.2;;;;;;;32.43;15.25781;935.5605;;;;
2021/04/21 09:06:23;;;;;;;0.5;0.3;;;;;;;31.41;16.28906;935.4849;;;;
2021/04/21 09:08:50;;;;;;;0.2;0.2;;;;;;;29.68;17.47852;935.4869;;;;
2021/04/21 09:11:17;;;;;;;0.2;0.2;;;;;;;29.36;18.44336;935.4966;;;;
2021/04/21 09:13:42;;;;;;;0.6;0.3;;;;;;;27.95;19.01563;935.5094;;;;
2021/04/21 09:16:11;;;;;;;0.3;0.3;;;;;;;27.47;19.14941;935.4397;;;;
2021/04/21 09:18:37;;;;;;;0.3;0.3;;;;;;;27.41;18.69629;935.4431;;;;
2021/04/21 09:21:02;;;;;;;0.2;0.2;;;;;;;26.85;19.34766;935.4584;;;;
2021/04/21 09:23:27;;;;;;;1.8;0.3;;;;;;;26.74;19.63867;935.4989;;;;
2021/04/21 09:25:53;;;;;;;0.1;0.1;;;;;;;26.54;19.74902;935.4684;;;;
2021/04/21 09:28:20;;;;;;;2.1;0.3;;;;;;;25.79;20.36621;935.5208;;;;
2021/04/21 09:30:44;;;;;;;0.3;0.3;;;;;;;25.76;21.9248;935.4947;;;;
2021/04/21 09:33:12;;;;;;;0.3;0.3;;;;;;;25.13;22.44824;935.4693;;;;
2021/04/21 09:35:38;;;;;;;0.4;0.3;;;;;;;24.75;21.91113;935.527;;;;
2021/04/21 09:38:03;;;;;;;1.9;0.8;;;;;;;23.84;23.69043;935.3696;;;;
2021/04/21 09:40:30;;;;;;;0.2;0.2;;;;;;;23.96;23.70898;935.4276;;;;
2021/04/21 09:42:55;;;;;;;0.1;0.1;;;;;;;23.56;23.71094;935.3639;;;;
2021/04/21 09:45:31;;;;;;;0.5;0.2;;;;;;;23.44;24.03418;935.3951;;;;
2021/04/21 09:47:59;;;;;;;0.3;0.3;;;;;;;23.73;23.97852;935.3097;;;;
2021/04/21 09:50:24;;;;;;;0.3;0.3;;;;;;;23.38;24.58301;935.3983;;;;
2021/04/21 09:52:54;;;;;;;0.5;0.3;;;;;;;23.08;23.94336;935.405;;;;
2021/04/21 09:55:19;;;;;;;0.2;0.1;;;;;;;23.26;26.61035;935.3225;;;;
2021/04/21 09:57:44;;;;;;;0.5;0.4;;;;;;;23.57;25.51074;935.3533;;;;
2021/04/21 10:00:10;;;;;;;0.2;0.2;;;;;;;24.48;22.86426;935.4314;;;;
2021/04/21 10:02:35;;;;;;;1.2;0.6;;;;;;;24.82;23.55371;935.3734;;;;
2021/04/21 10:05:00;;;;;;;0.4;0.3;;;;;;;24.46;24.72461;935.375;;;;
2021/04/21 10:07:25;;;;;;;0.9;0.4;;;;;;;24.4;24.17969;935.3578;;;;
2021/04/21 10:09:56;;;;;;;0.2;0.2;;;;;;;24.82;23.2002;935.3702;;;;
2021/04/21 10:12:15;;;;;;;0.6;0.4;;;;;;;25.38;23.67773;935.3989;;;;
2021/04/21 10:14:41;;;;;;;0.3;0.3;;;;;;;26.07;21.06543;935.3165;;;;
2021/04/21 10:17:06;;;;;;;0.6;0.5;;;;;;;25.92;22.42969;935.3922;;;;
2021/04/21 10:19:31;;;;;;;0.4;0.4;;;;;;;25.25;24.80469;935.3967;;;;
2021/04/21 10:21:56;;;;;;;0.4;0.3;;;;;;;23.95;24.80371;935.3774;;;;
2021/04/21 10:24:25;;;;;;;0.7;0.5;;;;;;;23.24;26.12695;935.4232;;;;
2021/04/21 10:26:48;;;;;;;0.7;0.6;;;;;;;21.88;28.35547;935.4743;;;;
2021/04/21 10:29:15;;;;;;;0.3;0.2;;;;;;;21.85;28.10742;935.4125;;;;
2021/04/21 10:31:40;;;;;;;0.4;0.4;;;;;;;21.91;27.34863;935.4224;;;;
2021/04/21 10:34:07;;;;;;;0.7;0.4;;;;;;;22.15;26.78906;935.4692;;;;
2021/04/21 10:36:32;;;;;;;0.8;0.6;;;;;;;21.62;28.24512;935.4294;;;;
2021/04/21 10:38:57;;;;;;;0.4;0.4;;;;;;;21.12;28.75098;935.437;;;;
2021/04/21 10:41:22;;;;;;;1.3;0.3;;;;;;;20.55;29.34473;935.4875;;;;
2021/04/21 10:43:47;;;;;;;1.2;0.4;;;;;;;20.71;30.24414;935.4891;;;;
2021/04/21 10:46:13;;;;;;;0.8;0.6;;;;;;;20.35;29.70508;935.4814;;;;
2021/04/21 10:48:40;;;;;;;0.6;0.3;;;;;;;20.4;30.39746;935.4264;;;;
2021/04/21 10:51:05;;;;;;;0.5;0.3;;;;;;;20.65;31.39648;935.423;;;;
2021/04/21 10:53:33;;;;;;;0.9;0.3;;;;;;;20.7;30.79199;935.3452;;;;
2021/04/21 10:55:58;;;;;;;0.4;0.3;;;;;;;20.72;30.37305;935.3786;;;;
2021/04/21 10:58:23;;;;;;;0.3;0.3;;;;;;;21.7;28.63574;935.3214;;;;
2021/04/21 11:00:50;;;;;;;0.3;0.3;;;;;;;22.62;28.79004;935.3087;;;;
2021/04/21 11:03:16;;;;;;;0.2;0.2;;;;;;;23.18;27.02734;935.2422;;;;
2021/04/21 11:05:40;;;;;;;0.5;0.5;;;;;;;23.43;27.05469;935.2633;;;;
2021/04/21 11:08:07;;;;;;;0.5;0.5;;;;;;;23.81;26.60742;935.2983;;;;
2021/04/21 11:10:32;;;;;;;0.4;0.4;;;;;;;23.63;26.96094;935.2481;;;;
2021/04/21 11:13:00;;;;;;;0.9;0.3;;;;;;;23.37;26.59277;935.3077;;;;
2021/04/21 11:15:26;;;;;;;1.4;0.4;;;;;;;23.6;26.71289;935.2792;;;;
2021/04/21 11:17:51;;;;;;;0.3;0.3;;;;;;;23.27;26.85742;935.2369;;;;
2021/04/21 11:20:16;;;;;;;0.9;0.3;;;;;;;23.1;27.32813;935.2254;;;;
2021/04/21 11:22:41;;;;;;;0.3;0.3;;;;;;;23.08;28.03223;935.21;;;;
2021/04/21 11:25:11;;;;;;;0.4;0.4;;;;;;;22.59;28.18945;935.2053;;;;
2021/04/21 11:27:36;;;;;;;0.4;0.4;;;;;;;22.49;28.19434;935.1747;;;;
2021/04/21 11:30:03;;;;;;;2.7;0.6;;;;;;;22.4;28.7168;935.2657;;;;
2021/04/21 11:32:30;;;;;;;0.2;0.2;;;;;;;22.39;28.05957;935.1241;;;;
2021/04/21 11:34:55;;;;;;;0.5;0.4;;;;;;;21.94;29.23828;935.0519;;;;
2021/04/21 11:37:20;;;;;;;0.6;0.5;;;;;;;21.73;28.29883;935.1644;;;;
2021/04/21 11:39:46;;;;;;;0.7;0.5;;;;;;;22.35;29.12402;935.108;;;;
2021/04/21 11:42:10;;;;;;;0.5;0.3;;;;;;;22.95;27.31934;935.0814;;;;
2021/04/21 11:44:35;;;;;;;1.1;0.4;;;;;;;22.92;26.51855;935.111;;;;
2021/04/21 11:47:02;;;;;;;2.4;0.7;;;;;;;22.42;27.08789;935.1656;;;;
2021/04/21 11:49:26;;;;;;;0.7;0.5;;;;;;;21.91;27.80664;935.1189;;;;
2021/04/21 11:51:51;;;;;;;5.3;0.4;;;;;;;21.29;31.17285;935.1912;;;;
2021/04/21 11:54:16;;;;;;;0.4;0.4;;;;;;;20.64;31.15039;935.1741;;;;
2021/04/21 11:56:41;;;;;;;0.7;0.5;;;;;;;21.04;30.93359;935.1865;;;;
2021/04/21 11:59:06;;;;;;;0.4;0.3;;;;;;;19.96;32.68945;935.1199;;;;
2021/04/21 12:01:31;;;;;;;0.2;0.2;;;;;;;19.46;30.69434;935.1431;;;;
2021/04/21 12:03:57;;;;;;;0.4;0.3;;;;;;;18.94;31.27539;935.1121;;;;
2021/04/21 12:06:22;;;;;;;0.3;0.3;;;;;;;19.14;33.75781;935.1058;;;;
2021/04/21 12:08:48;;;;;;;1.4;0.4;;;;;;;19.52;34.42871;935.0776;;;;
2021/04/21 12:11:13;;;;;;;0.4;0.4;;;;;;;20.37;32.12402;935.0983;;;;
2021/04/21 12:13:43;;;;;;;2.5;0.7;;;;;;;21.65;31.02246;934.9919;;;;
2021/04/21 12:16:08;;;;;;;6.1;0.5;;;;;;;21.8;30.11816;934.9803;;;;
2021/04/21 12:18:35;;;;;;;0.5;0.4;;;;;;;21.97;29.74414;934.9998;;;;
2021/04/21 12:21:00;;;;;;;0.4;0.4;;;;;;;22.58;29.30371;934.9031;;;;
2021/04/21 12:23:25;;;;;;;1.2;0.5;;;;;;;22.8;28.91895;934.9286;;;;
2021/04/21 12:25:50;;;;;;;0.6;0.4;;;;;;;23;27.78125;934.9142;;;;
2021/04/21 12:28:16;;;;;;;0.7;0.4;;;;;;;23.12;27.68164;934.9012;;;;
2021/04/21 12:30:41;;;;;;;0.5;0.4;;;;;;;22.82;28.21582;934.8998;;;;
2021/04/21 12:33:06;;;;;;;0.6;0.6;;;;;;;23.31;26.54199;934.9554;;;;
2021/04/21 12:35:31;;;;;;;0.4;0.4;;;;;;;23.12;26.80078;934.9483;;;;
2021/04/21 12:37:57;;;;;;;0.6;0.4;;;;;;;23.11;27.57617;934.9179;;;;
2021/04/21 12:40:22;;;;;;;0.6;0.3;;;;;;;22.5;27.92578;935.0174;;;;
2021/04/21 12:42:47;;;;;;;0.4;0.4;;;;;;;20.57;28.5752;935.0453;;;;
2021/04/21 12:45:12;;;;;;;0.9;0.4;;;;;;;19.39;32.85645;935.1103;;;;
2021/04/21 12:47:37;;;;;;;0.7;0.5;;;;;;;18.92;32.85645;935.0491;;;;
2021/04/21 12:50:05;;;;;;;2.2;0.4;;;;;;;18.43;34.51758;934.9539;;;;
2021/04/21 12:52:30;;;;;;;1.1;0.5;;;;;;;18.43;32.90137;935.0242;;;;
2021/04/21 12:54:55;;;;;;;4.9;0.5;;;;;;;19.09;31.69336;935.0284;;;;
2021/04/21 12:57:20;;;;;;;0.5;0.4;;;;;;;18.58;34.93652;935.0129;;;;
2021/04/21 12:59:45;;;;;;;0.4;0.4;;;;;;;18.35;32.16309;934.9308;;;;
2021/04/21 13:02:12;;;;;;;0.1;0.1;;;;;;;18.83;32.82715;934.9135;;;;
2021/04/21 13:04:36;;;;;;;0.9;0.2;;;;;;;18.75;31.16895;934.8566;;;;
2021/04/21 13:07:02;;;;;;;0.1;0.1;;;;;;;19.13;30.40332;934.8472;;;;
2021/04/21 13:09:27;;;;;;;0.2;0.1;;;;;;;18.99;29.10156;934.7718;;;;
2021/04/21 13:11:53;;;;;;;0.6;0.5;;;;;;;18.22;30.94531;934.8229;;;;
2021/04/21 13:14:18;;;;;;;0.9;0.4;;;;;;;18.3;30.18359;934.8208;;;;
2021/04/21 13:16:43;;;;;;;0.3;0.3;;;;;;;18.06;30.37695;934.8353;;;;
2021/04/21 13:19:09;;;;;;;1.2;0.6;;;;;;;17.93;32.43457;934.7665;;;;
2021/04/21 13:21:34;;;;;;;0.4;0.4;;;;;;;18.08;32.86328;934.7907;;;;
2021/04/21 13:23:59;;;;;;;0.3;0.3;;;;;;;18.18;32.92871;934.7777;;;;
2021/04/21 13:26:24;;;;;;;0.5;0.4;;;;;;;18.56;32.35254;934.7538;;;;
2021/04/21 13:28:50;;;;;;;0.5;0.5;;;;;;;18.8;32.77734;934.7534;;;;
2021/04/21 13:31:15;;;;;;;0.7;0.6;;;;;;;18.8;31.37012;934.7485;;;;
2021/04/21 13:33:41;;;;;;;0.6;0.4;;;;;;;18.82;31.5918;934.7216;;;;
2021/04/21 13:36:06;;;;;;;1.7;0.4;;;;;;;18.95;31.98535;934.6849;;;;
2021/04/21 13:38:32;;;;;;;0.6;0.5;;;;;;;19.42;30.86621;934.6992;;;;
2021/04/21 13:40:57;;;;;;;0.9;0.4;;;;;;;19.75;30.75;934.7312;;;;
2021/04/21 13:43:23;;;;;;;2.5;0.5;;;;;;;19.89;31.10938;934.7148;;;;
2021/04/21 13:45:48;;;;;;;0.9;0.5;;;;;;;19.87;30.53613;934.7428;;;;
2021/04/21 13:48:14;;;;;;;0.3;0.3;;;;;;;20.1;30.40039;934.6953;;;;
2021/04/21 13:50:40;;;;;;;2.5;0.7;;;;;;;19.77;30.42383;934.6603;;;;
2021/04/21 13:53:05;;;;;;;0.6;0.3;;;;;;;19.97;30.74121;934.6308;;;;
2021/04/21 13:55:30;;;;;;;0.4;0.4;;;;;;;19.56;31.41211;934.7076;;;;
2021/04/21 13:57:57;;;;;;;8.3;0.4;;;;;;;19.57;29.43164;934.6541;;;;
2021/04/21 14:00:22;;;;;;;0.5;0.3;;;;;;;19.34;31.09375;934.6498;;;;
2021/04/21 14:02:48;;;;;;;0.4;0.4;;;;;;;19.03;32.6084;934.7056;;;;
2021/04/21 14:05:14;;;;;;;0.3;0.3;;;;;;;18.86;32.02539;934.6214;;;;
2021/04/21 14:07:43;;;;;;;0.2;0.2;;;;;;;18.82;31.67383;934.5594;;;;
2021/04/21 14:10:07;;;;;;;0.3;0.3;;;;;;;18.81;34.0127;934.6191;;;;
2021/04/21 14:12:32;;;;;;;0.7;0.6;;;;;;;18.64;34.44043;934.6216;;;;
2021/04/21 14:14:57;;;;;;;0.7;0.3;;;;;;;18.35;33.74414;934.6518;;;;
2021/04/21 14:17:22;;;;;;;0.6;0.6;;;;;;;17.83;36.87402;934.6224;;;;
2021/04/21 14:19:48;;;;;;;0.3;0.3;;;;;;;17.41;36.64063;934.6442;;;;
2021/04/21 14:22:15;;;;;;;0.3;0.3;;;;;;;17.04;35.46387;934.6301;;;;
2021/04/21 14:24:39;;;;;;;0.4;0.4;;;;;;;16.84;36.89551;934.6677;;;;
2021/04/21 14:27:04;;;;;;;0.6;0.6;;;;;;;16.8;37.51758;934.6184;;;;